sensor_id;sensor_type;location;lat;lon;timestamp;P1;durP1;ratioP1;P2;durP2;ratioP2
2009;SDS011;1008;47.404;8.502;2022-08-25T00:01:27;4.10;;;3.30;;
2009;SDS011;1008;47.404;8.502;2022-08-25T00:03:56;4.10;;;3.40;;
2009;SDS011;1008;47.404;8.502;2022-08-25T00:06:23;4.90;;;4.07;;
2009;SDS011;1008;47.404;8.502;2022-08-25T00:08:51;7.27;;;3.43;;
2009;SDS011;1008;47.404;8.502;2022-08-25T00:11:20;3.60;;;3.30;;
2009;SDS011;1008;47.404;8.502;2022-08-25T00:13:48;5.40;;;3.60;;
2009;SDS011;1008;47.404;8.502;2022-08-25T00:16:18;4.17;;;3.50;;
2009;SDS011;1008;47.404;8.502;2022-08-25T00:18:47;5.70;;;3.93;;
2009;SDS011;1008;47.404;8.502;2022-08-25T00:21:16;4.30;;;3.33;;
2009;SDS011;1008;47.404;8.502;2022-08-25T00:23:43;3.60;;;3.30;;
2009;SDS011;1008;47.404;8.502;2022-08-25T00:26:12;4.03;;;3.57;;
2009;SDS011;1008;47.404;8.502;2022-08-25T00:28:40;3.80;;;3.33;;
2009;SDS011;1008;47.404;8.502;2022-08-25T00:31:10;5.50;;;3.80;;
2009;SDS011;1008;47.404;8.502;2022-08-25T00:33:37;5.00;;;3.43;;
2009;SDS011;1008;47.404;8.502;2022-08-25T00:36:04;5.07;;;3.70;;
2009;SDS011;1008;47.404;8.502;2022-08-25T00:38:31;4.63;;;4.13;;
2009;SDS011;1008;47.404;8.502;2022-08-25T00:40:58;4.60;;;3.27;;
2009;SDS011;1008;47.404;8.502;2022-08-25T00:43:34;4.33;;;3.57;;
2009;SDS011;1008;47.404;8.502;2022-08-25T00:46:09;4.23;;;3.83;;
2009;SDS011;1008;47.404;8.502;2022-08-25T00:48:36;4.03;;;3.03;;
2009;SDS011;1008;47.404;8.502;2022-08-25T00:51:07;4.57;;;3.50;;
2009;SDS011;1008;47.404;8.502;2022-08-25T00:53:36;4.03;;;3.60;;
2009;SDS011;1008;47.404;8.502;2022-08-25T00:56:05;4.63;;;3.90;;
2009;SDS011;1008;47.404;8.502;2022-08-25T00:58:31;6.10;;;4.10;;
2009;SDS011;1008;47.404;8.502;2022-08-25T01:01:01;4.00;;;3.60;;
2009;SDS011;1008;47.404;8.502;2022-08-25T01:03:29;4.70;;;4.00;;
2009;SDS011;1008;47.404;8.502;2022-08-25T01:05:58;6.33;;;3.87;;
2009;SDS011;1008;47.404;8.502;2022-08-25T01:08:26;4.57;;;3.60;;
2009;SDS011;1008;47.404;8.502;2022-08-25T01:10:56;4.53;;;4.07;;
2009;SDS011;1008;47.404;8.502;2022-08-25T01:13:25;5.13;;;4.17;;
2009;SDS011;1008;47.404;8.502;2022-08-25T01:15:58;4.13;;;3.60;;
2009;SDS011;1008;47.404;8.502;2022-08-25T01:18:26;5.00;;;4.50;;
2009;SDS011;1008;47.404;8.502;2022-08-25T01:20:55;4.63;;;3.97;;
2009;SDS011;1008;47.404;8.502;2022-08-25T01:23:23;4.80;;;4.30;;
2009;SDS011;1008;47.404;8.502;2022-08-25T01:25:52;5.00;;;3.90;;
2009;SDS011;1008;47.404;8.502;2022-08-25T01:28:26;6.17;;;4.30;;
2009;SDS011;1008;47.404;8.502;2022-08-25T01:30:53;5.93;;;4.10;;
2009;SDS011;1008;47.404;8.502;2022-08-25T01:33:20;5.03;;;3.87;;
2009;SDS011;1008;47.404;8.502;2022-08-25T01:35:47;4.83;;;3.80;;
2009;SDS011;1008;47.404;8.502;2022-08-25T01:38:16;4.00;;;3.60;;
2009;SDS011;1008;47.404;8.502;2022-08-25T01:40:45;6.10;;;4.53;;
2009;SDS011;1008;47.404;8.502;2022-08-25T01:43:15;5.63;;;4.03;;
2009;SDS011;1008;47.404;8.502;2022-08-25T01:45:50;4.67;;;4.00;;
2009;SDS011;1008;47.404;8.502;2022-08-25T01:48:17;5.13;;;3.97;;
2009;SDS011;1008;47.404;8.502;2022-08-25T01:50:44;4.83;;;3.43;;
2009;SDS011;1008;47.404;8.502;2022-08-25T01:53:12;4.40;;;3.60;;
2009;SDS011;1008;47.404;8.502;2022-08-25T01:55:44;6.77;;;3.70;;
2009;SDS011;1008;47.404;8.502;2022-08-25T01:58:18;5.20;;;3.53;;
2009;SDS011;1008;47.404;8.502;2022-08-25T02:00:46;4.57;;;3.67;;
2009;SDS011;1008;47.404;8.502;2022-08-25T02:03:13;6.57;;;4.83;;
2009;SDS011;1008;47.404;8.502;2022-08-25T02:05:41;6.43;;;4.37;;
2009;SDS011;1008;47.404;8.502;2022-08-25T02:08:09;4.60;;;3.43;;
2009;SDS011;1008;47.404;8.502;2022-08-25T02:10:36;4.30;;;3.80;;
2009;SDS011;1008;47.404;8.502;2022-08-25T02:13:06;6.03;;;3.97;;
2009;SDS011;1008;47.404;8.502;2022-08-25T02:15:33;4.63;;;3.73;;
2009;SDS011;1008;47.404;8.502;2022-08-25T02:18:04;5.23;;;3.60;;
2009;SDS011;1008;47.404;8.502;2022-08-25T02:20:31;6.10;;;4.30;;
2009;SDS011;1008;47.404;8.502;2022-08-25T02:22:57;5.70;;;4.00;;
2009;SDS011;1008;47.404;8.502;2022-08-25T02:25:24;7.57;;;4.33;;
2009;SDS011;1008;47.404;8.502;2022-08-25T02:27:51;5.50;;;3.77;;
2009;SDS011;1008;47.404;8.502;2022-08-25T02:30:19;5.10;;;4.17;;
2009;SDS011;1008;47.404;8.502;2022-08-25T02:32:46;6.50;;;4.10;;
2009;SDS011;1008;47.404;8.502;2022-08-25T02:35:13;4.30;;;3.90;;
2009;SDS011;1008;47.404;8.502;2022-08-25T02:37:40;5.60;;;4.23;;
2009;SDS011;1008;47.404;8.502;2022-08-25T02:40:07;5.13;;;3.63;;
2009;SDS011;1008;47.404;8.502;2022-08-25T02:42:34;6.23;;;3.97;;
2009;SDS011;1008;47.404;8.502;2022-08-25T02:45:01;5.97;;;4.27;;
2009;SDS011;1008;47.404;8.502;2022-08-25T02:47:30;5.40;;;4.33;;
2009;SDS011;1008;47.404;8.502;2022-08-25T02:49:57;10.60;;;3.63;;
2009;SDS011;1008;47.404;8.502;2022-08-25T02:52:24;4.27;;;3.80;;
2009;SDS011;1008;47.404;8.502;2022-08-25T02:54:50;5.20;;;3.50;;
2009;SDS011;1008;47.404;8.502;2022-08-25T02:57:17;6.33;;;4.03;;
2009;SDS011;1008;47.404;8.502;2022-08-25T02:59:44;4.40;;;3.93;;
2009;SDS011;1008;47.404;8.502;2022-08-25T03:02:12;4.10;;;3.60;;
2009;SDS011;1008;47.404;8.502;2022-08-25T03:04:42;5.97;;;4.30;;
2009;SDS011;1008;47.404;8.502;2022-08-25T03:07:09;5.83;;;4.37;;
2009;SDS011;1008;47.404;8.502;2022-08-25T03:09:36;5.20;;;4.17;;
2009;SDS011;1008;47.404;8.502;2022-08-25T03:12:03;5.70;;;4.13;;
2009;SDS011;1008;47.404;8.502;2022-08-25T03:14:30;6.63;;;4.33;;
2009;SDS011;1008;47.404;8.502;2022-08-25T03:16:57;4.60;;;3.50;;
2009;SDS011;1008;47.404;8.502;2022-08-25T03:19:24;4.90;;;3.80;;
2009;SDS011;1008;47.404;8.502;2022-08-25T03:21:52;5.00;;;4.20;;
2009;SDS011;1008;47.404;8.502;2022-08-25T03:24:20;4.40;;;3.80;;
2009;SDS011;1008;47.404;8.502;2022-08-25T03:26:47;5.90;;;3.73;;
2009;SDS011;1008;47.404;8.502;2022-08-25T03:29:20;5.77;;;4.13;;
2009;SDS011;1008;47.404;8.502;2022-08-25T03:31:48;4.93;;;3.67;;
2009;SDS011;1008;47.404;8.502;2022-08-25T03:34:16;5.27;;;3.90;;
2009;SDS011;1008;47.404;8.502;2022-08-25T03:36:44;4.40;;;3.40;;
2009;SDS011;1008;47.404;8.502;2022-08-25T03:39:14;4.97;;;4.20;;
2009;SDS011;1008;47.404;8.502;2022-08-25T03:41:42;7.60;;;4.50;;
2009;SDS011;1008;47.404;8.502;2022-08-25T03:44:09;4.63;;;3.80;;
2009;SDS011;1008;47.404;8.502;2022-08-25T03:46:37;4.40;;;3.80;;
2009;SDS011;1008;47.404;8.502;2022-08-25T03:49:06;4.40;;;4.00;;
2009;SDS011;1008;47.404;8.502;2022-08-25T03:51:36;4.73;;;3.50;;
2009;SDS011;1008;47.404;8.502;2022-08-25T03:54:05;5.10;;;3.93;;
2009;SDS011;1008;47.404;8.502;2022-08-25T03:56:34;4.80;;;4.03;;
2009;SDS011;1008;47.404;8.502;2022-08-25T03:59:01;5.13;;;3.50;;
2009;SDS011;1008;47.404;8.502;2022-08-25T04:01:28;4.27;;;3.30;;
2009;SDS011;1008;47.404;8.502;2022-08-25T04:03:55;4.53;;;3.57;;
2009;SDS011;1008;47.404;8.502;2022-08-25T04:06:22;4.03;;;3.03;;
2009;SDS011;1008;47.404;8.502;2022-08-25T04:08:48;6.13;;;4.10;;
2009;SDS011;1008;47.404;8.502;2022-08-25T04:11:17;4.90;;;3.57;;
2009;SDS011;1008;47.404;8.502;2022-08-25T04:13:46;4.80;;;4.10;;
2009;SDS011;1008;47.404;8.502;2022-08-25T04:16:15;4.77;;;3.93;;
2009;SDS011;1008;47.404;8.502;2022-08-25T04:18:43;5.43;;;4.23;;
2009;SDS011;1008;47.404;8.502;2022-08-25T04:21:12;5.47;;;4.10;;
2009;SDS011;1008;47.404;8.502;2022-08-25T04:23:39;5.20;;;4.03;;
2009;SDS011;1008;47.404;8.502;2022-08-25T04:26:08;5.60;;;3.63;;
2009;SDS011;1008;47.404;8.502;2022-08-25T04:28:35;8.53;;;4.13;;
2009;SDS011;1008;47.404;8.502;2022-08-25T04:31:05;4.33;;;3.47;;
2009;SDS011;1008;47.404;8.502;2022-08-25T04:33:33;4.60;;;3.50;;
2009;SDS011;1008;47.404;8.502;2022-08-25T04:35:59;7.10;;;4.73;;
2009;SDS011;1008;47.404;8.502;2022-08-25T04:38:26;6.10;;;4.13;;
2009;SDS011;1008;47.404;8.502;2022-08-25T04:40:55;5.37;;;4.60;;
2009;SDS011;1008;47.404;8.502;2022-08-25T04:43:22;5.80;;;4.47;;
2009;SDS011;1008;47.404;8.502;2022-08-25T04:45:49;6.37;;;4.10;;
2009;SDS011;1008;47.404;8.502;2022-08-25T04:48:17;6.20;;;4.80;;
2009;SDS011;1008;47.404;8.502;2022-08-25T04:50:44;6.10;;;4.60;;
2009;SDS011;1008;47.404;8.502;2022-08-25T04:53:11;7.73;;;5.20;;
2009;SDS011;1008;47.404;8.502;2022-08-25T04:55:39;5.77;;;5.17;;
2009;SDS011;1008;47.404;8.502;2022-08-25T04:58:06;6.70;;;4.67;;
2009;SDS011;1008;47.404;8.502;2022-08-25T05:00:32;6.10;;;4.30;;
2009;SDS011;1008;47.404;8.502;2022-08-25T05:02:59;7.13;;;4.47;;
2009;SDS011;1008;47.404;8.502;2022-08-25T05:05:27;6.23;;;4.33;;
2009;SDS011;1008;47.404;8.502;2022-08-25T05:07:55;6.90;;;5.03;;
2009;SDS011;1008;47.404;8.502;2022-08-25T05:10:21;6.83;;;4.43;;
2009;SDS011;1008;47.404;8.502;2022-08-25T05:12:49;7.40;;;4.70;;
2009;SDS011;1008;47.404;8.502;2022-08-25T05:15:15;7.20;;;4.87;;
2009;SDS011;1008;47.404;8.502;2022-08-25T05:18:00;5.47;;;4.17;;
2009;SDS011;1008;47.404;8.502;2022-08-25T05:20:28;10.63;;;4.77;;
2009;SDS011;1008;47.404;8.502;2022-08-25T05:22:55;6.77;;;4.50;;
2009;SDS011;1008;47.404;8.502;2022-08-25T05:25:23;5.63;;;4.67;;
2009;SDS011;1008;47.404;8.502;2022-08-25T05:27:49;5.50;;;4.00;;
2009;SDS011;1008;47.404;8.502;2022-08-25T05:30:16;6.83;;;4.60;;
2009;SDS011;1008;47.404;8.502;2022-08-25T05:32:43;6.00;;;4.60;;
2009;SDS011;1008;47.404;8.502;2022-08-25T05:35:10;7.67;;;4.80;;
2009;SDS011;1008;47.404;8.502;2022-08-25T05:37:38;5.30;;;4.70;;
2009;SDS011;1008;47.404;8.502;2022-08-25T05:40:05;9.50;;;5.03;;
2009;SDS011;1008;47.404;8.502;2022-08-25T05:42:33;9.10;;;5.97;;
2009;SDS011;1008;47.404;8.502;2022-08-25T05:45:01;6.70;;;4.40;;
2009;SDS011;1008;47.404;8.502;2022-08-25T05:47:28;10.57;;;4.80;;
2009;SDS011;1008;47.404;8.502;2022-08-25T05:49:55;7.07;;;5.20;;
2009;SDS011;1008;47.404;8.502;2022-08-25T05:52:21;7.17;;;5.30;;
2009;SDS011;1008;47.404;8.502;2022-08-25T05:54:49;9.00;;;5.73;;
2009;SDS011;1008;47.404;8.502;2022-08-25T05:57:16;7.73;;;5.87;;
2009;SDS011;1008;47.404;8.502;2022-08-25T05:59:43;8.57;;;5.87;;
2009;SDS011;1008;47.404;8.502;2022-08-25T06:02:10;11.70;;;6.03;;
2009;SDS011;1008;47.404;8.502;2022-08-25T06:04:54;8.80;;;5.60;;
2009;SDS011;1008;47.404;8.502;2022-08-25T06:07:22;6.60;;;5.37;;
2009;SDS011;1008;47.404;8.502;2022-08-25T06:09:50;7.47;;;5.40;;
2009;SDS011;1008;47.404;8.502;2022-08-25T06:12:17;8.03;;;5.30;;
2009;SDS011;1008;47.404;8.502;2022-08-25T06:14:45;9.87;;;6.50;;
2009;SDS011;1008;47.404;8.502;2022-08-25T06:17:13;9.00;;;6.30;;
2009;SDS011;1008;47.404;8.502;2022-08-25T06:19:41;9.43;;;6.03;;
2009;SDS011;1008;47.404;8.502;2022-08-25T06:22:08;8.37;;;5.53;;
2009;SDS011;1008;47.404;8.502;2022-08-25T06:24:35;6.57;;;5.00;;
2009;SDS011;1008;47.404;8.502;2022-08-25T06:27:03;9.13;;;7.00;;
2009;SDS011;1008;47.404;8.502;2022-08-25T06:29:30;9.33;;;5.93;;
2009;SDS011;1008;47.404;8.502;2022-08-25T06:31:57;9.53;;;6.23;;
2009;SDS011;1008;47.404;8.502;2022-08-25T06:34:23;7.53;;;5.70;;
2009;SDS011;1008;47.404;8.502;2022-08-25T06:36:50;6.90;;;5.40;;
2009;SDS011;1008;47.404;8.502;2022-08-25T06:39:17;8.27;;;5.60;;
2009;SDS011;1008;47.404;8.502;2022-08-25T06:41:44;9.57;;;6.13;;
2009;SDS011;1008;47.404;8.502;2022-08-25T06:44:12;8.10;;;6.17;;
2009;SDS011;1008;47.404;8.502;2022-08-25T06:46:39;8.50;;;5.87;;
2009;SDS011;1008;47.404;8.502;2022-08-25T06:49:06;8.70;;;5.60;;
2009;SDS011;1008;47.404;8.502;2022-08-25T06:51:33;7.93;;;5.80;;
2009;SDS011;1008;47.404;8.502;2022-08-25T06:54:00;9.07;;;5.90;;
2009;SDS011;1008;47.404;8.502;2022-08-25T06:56:28;8.97;;;6.13;;
2009;SDS011;1008;47.404;8.502;2022-08-25T06:58:54;8.60;;;6.33;;
2009;SDS011;1008;47.404;8.502;2022-08-25T07:01:24;7.87;;;5.83;;
2009;SDS011;1008;47.404;8.502;2022-08-25T07:03:53;8.60;;;5.67;;
2009;SDS011;1008;47.404;8.502;2022-08-25T07:06:21;6.70;;;5.13;;
2009;SDS011;1008;47.404;8.502;2022-08-25T07:08:49;6.90;;;5.33;;
2009;SDS011;1008;47.404;8.502;2022-08-25T07:11:15;8.57;;;5.70;;
2009;SDS011;1008;47.404;8.502;2022-08-25T07:13:44;8.20;;;5.50;;
2009;SDS011;1008;47.404;8.502;2022-08-25T07:16:11;9.87;;;5.70;;
2009;SDS011;1008;47.404;8.502;2022-08-25T07:18:40;8.60;;;5.60;;
2009;SDS011;1008;47.404;8.502;2022-08-25T07:21:07;7.07;;;5.40;;
2009;SDS011;1008;47.404;8.502;2022-08-25T07:23:34;9.13;;;5.67;;
2009;SDS011;1008;47.404;8.502;2022-08-25T07:26:05;5.13;;;4.47;;
2009;SDS011;1008;47.404;8.502;2022-08-25T07:28:34;6.00;;;4.33;;
2009;SDS011;1008;47.404;8.502;2022-08-25T07:31:02;5.47;;;4.33;;
2009;SDS011;1008;47.404;8.502;2022-08-25T07:33:29;6.80;;;4.73;;
2009;SDS011;1008;47.404;8.502;2022-08-25T07:35:57;7.90;;;4.97;;
2009;SDS011;1008;47.404;8.502;2022-08-25T07:38:23;6.00;;;4.63;;
2009;SDS011;1008;47.404;8.502;2022-08-25T07:40:50;6.53;;;5.43;;
2009;SDS011;1008;47.404;8.502;2022-08-25T07:43:19;6.83;;;5.00;;
2009;SDS011;1008;47.404;8.502;2022-08-25T07:45:47;6.60;;;5.20;;
2009;SDS011;1008;47.404;8.502;2022-08-25T07:48:14;6.57;;;4.83;;
2009;SDS011;1008;47.404;8.502;2022-08-25T07:50:43;10.73;;;4.87;;
2009;SDS011;1008;47.404;8.502;2022-08-25T07:53:13;6.60;;;4.90;;
2009;SDS011;1008;47.404;8.502;2022-08-25T07:55:40;6.20;;;4.47;;
2009;SDS011;1008;47.404;8.502;2022-08-25T07:58:08;9.77;;;5.00;;
2009;SDS011;1008;47.404;8.502;2022-08-25T08:00:36;7.80;;;5.00;;
2009;SDS011;1008;47.404;8.502;2022-08-25T08:03:04;7.43;;;5.00;;
2009;SDS011;1008;47.404;8.502;2022-08-25T08:05:32;6.03;;;4.50;;
2009;SDS011;1008;47.404;8.502;2022-08-25T08:08:00;6.27;;;4.30;;
2009;SDS011;1008;47.404;8.502;2022-08-25T08:10:29;5.93;;;4.07;;
2009;SDS011;1008;47.404;8.502;2022-08-25T08:12:55;11.43;;;4.63;;
2009;SDS011;1008;47.404;8.502;2022-08-25T08:15:22;5.50;;;4.50;;
2009;SDS011;1008;47.404;8.502;2022-08-25T08:17:49;7.73;;;4.47;;
2009;SDS011;1008;47.404;8.502;2022-08-25T08:20:15;6.87;;;4.90;;
2009;SDS011;1008;47.404;8.502;2022-08-25T08:22:42;6.93;;;5.13;;
2009;SDS011;1008;47.404;8.502;2022-08-25T08:25:10;7.60;;;4.93;;
2009;SDS011;1008;47.404;8.502;2022-08-25T08:27:38;5.00;;;3.97;;
2009;SDS011;1008;47.404;8.502;2022-08-25T08:30:07;4.80;;;4.30;;
2009;SDS011;1008;47.404;8.502;2022-08-25T08:32:35;5.70;;;5.00;;
2009;SDS011;1008;47.404;8.502;2022-08-25T08:35:01;5.57;;;4.30;;
2009;SDS011;1008;47.404;8.502;2022-08-25T08:37:29;6.73;;;4.60;;
2009;SDS011;1008;47.404;8.502;2022-08-25T08:39:56;7.80;;;5.10;;
2009;SDS011;1008;47.404;8.502;2022-08-25T08:42:31;6.30;;;4.83;;
2009;SDS011;1008;47.404;8.502;2022-08-25T08:45:19;5.07;;;4.17;;
2009;SDS011;1008;47.404;8.502;2022-08-25T08:50:48;6.90;;;5.13;;
2009;SDS011;1008;47.404;8.502;2022-08-25T08:53:26;7.40;;;5.10;;
2009;SDS011;1008;47.404;8.502;2022-08-25T08:55:58;5.77;;;4.60;;
2009;SDS011;1008;47.404;8.502;2022-08-25T08:58:39;6.97;;;4.77;;
2009;SDS011;1008;47.404;8.502;2022-08-25T09:01:08;5.67;;;4.63;;
2009;SDS011;1008;47.404;8.502;2022-08-25T09:03:39;5.03;;;4.53;;
2009;SDS011;1008;47.404;8.502;2022-08-25T09:06:10;4.77;;;3.80;;
2009;SDS011;1008;47.404;8.502;2022-08-25T09:08:39;6.60;;;4.97;;
2009;SDS011;1008;47.404;8.502;2022-08-25T09:11:09;5.83;;;4.30;;
2009;SDS011;1008;47.404;8.502;2022-08-25T09:13:51;4.43;;;3.93;;
2009;SDS011;1008;47.404;8.502;2022-08-25T09:16:29;6.03;;;4.47;;
2009;SDS011;1008;47.404;8.502;2022-08-25T09:19:27;4.63;;;4.03;;
2009;SDS011;1008;47.404;8.502;2022-08-25T09:22:07;6.30;;;3.83;;
2009;SDS011;1008;47.404;8.502;2022-08-25T09:24:46;5.17;;;3.83;;
2009;SDS011;1008;47.404;8.502;2022-08-25T09:27:21;5.10;;;3.90;;
2009;SDS011;1008;47.404;8.502;2022-08-25T09:29:56;4.87;;;4.30;;
2009;SDS011;1008;47.404;8.502;2022-08-25T09:32:27;4.80;;;3.83;;
2009;SDS011;1008;47.404;8.502;2022-08-25T09:34:55;6.13;;;4.40;;
2009;SDS011;1008;47.404;8.502;2022-08-25T09:37:22;5.80;;;4.53;;
2009;SDS011;1008;47.404;8.502;2022-08-25T09:39:49;5.27;;;4.17;;
2009;SDS011;1008;47.404;8.502;2022-08-25T09:42:17;4.73;;;4.10;;
2009;SDS011;1008;47.404;8.502;2022-08-25T09:44:45;6.03;;;5.03;;
2009;SDS011;1008;47.404;8.502;2022-08-25T09:47:19;4.67;;;3.80;;
2009;SDS011;1008;47.404;8.502;2022-08-25T09:49:50;5.23;;;4.17;;
2009;SDS011;1008;47.404;8.502;2022-08-25T09:55:16;5.07;;;4.43;;
2009;SDS011;1008;47.404;8.502;2022-08-25T09:57:52;5.87;;;4.33;;
2009;SDS011;1008;47.404;8.502;2022-08-25T10:00:21;5.67;;;4.50;;
2009;SDS011;1008;47.404;8.502;2022-08-25T10:03:01;4.80;;;4.40;;
2009;SDS011;1008;47.404;8.502;2022-08-25T10:05:36;5.73;;;4.40;;
2009;SDS011;1008;47.404;8.502;2022-08-25T10:08:10;5.03;;;3.90;;
2009;SDS011;1008;47.404;8.502;2022-08-25T10:10:42;4.60;;;4.03;;
2009;SDS011;1008;47.404;8.502;2022-08-25T10:13:12;7.03;;;4.60;;
2009;SDS011;1008;47.404;8.502;2022-08-25T10:15:40;4.33;;;3.93;;
2009;SDS011;1008;47.404;8.502;2022-08-25T10:18:22;5.30;;;4.40;;
2009;SDS011;1008;47.404;8.502;2022-08-25T10:20:59;4.70;;;4.10;;
2009;SDS011;1008;47.404;8.502;2022-08-25T10:23:28;5.57;;;4.60;;
2009;SDS011;1008;47.404;8.502;2022-08-25T10:25:57;5.23;;;4.73;;
2009;SDS011;1008;47.404;8.502;2022-08-25T10:28:30;4.77;;;4.23;;
2009;SDS011;1008;47.404;8.502;2022-08-25T10:31:03;6.87;;;4.50;;
2009;SDS011;1008;47.404;8.502;2022-08-25T10:33:42;4.50;;;4.10;;
2009;SDS011;1008;47.404;8.502;2022-08-25T10:36:20;6.17;;;5.23;;
2009;SDS011;1008;47.404;8.502;2022-08-25T10:38:50;6.20;;;4.27;;
2009;SDS011;1008;47.404;8.502;2022-08-25T10:41:33;5.43;;;4.93;;
2009;SDS011;1008;47.404;8.502;2022-08-25T10:44:19;6.40;;;4.20;;
2009;SDS011;1008;47.404;8.502;2022-08-25T10:47:19;4.33;;;3.80;;
2009;SDS011;1008;47.404;8.502;2022-08-25T10:50:07;4.27;;;3.87;;
2009;SDS011;1008;47.404;8.502;2022-08-25T10:52:43;4.97;;;4.43;;
2009;SDS011;1008;47.404;8.502;2022-08-25T10:55:22;4.00;;;3.53;;
2009;SDS011;1008;47.404;8.502;2022-08-25T10:57:54;4.87;;;3.90;;
2009;SDS011;1008;47.404;8.502;2022-08-25T11:00:25;4.53;;;4.10;;
2009;SDS011;1008;47.404;8.502;2022-08-25T11:03:06;6.60;;;4.37;;
2009;SDS011;1008;47.404;8.502;2022-08-25T11:05:44;5.00;;;4.50;;
2009;SDS011;1008;47.404;8.502;2022-08-25T11:08:17;6.53;;;4.70;;
2009;SDS011;1008;47.404;8.502;2022-08-25T11:10:55;4.83;;;4.33;;
2009;SDS011;1008;47.404;8.502;2022-08-25T11:13:29;4.97;;;4.47;;
2009;SDS011;1008;47.404;8.502;2022-08-25T11:16:05;6.10;;;4.33;;
2009;SDS011;1008;47.404;8.502;2022-08-25T11:18:38;4.47;;;3.77;;
2009;SDS011;1008;47.404;8.502;2022-08-25T11:21:13;5.10;;;3.97;;
2009;SDS011;1008;47.404;8.502;2022-08-25T11:23:45;4.60;;;4.07;;
2009;SDS011;1008;47.404;8.502;2022-08-25T11:26:18;4.53;;;3.83;;
2009;SDS011;1008;47.404;8.502;2022-08-25T11:28:56;4.57;;;3.60;;
2009;SDS011;1008;47.404;8.502;2022-08-25T11:31:26;5.80;;;4.17;;
2009;SDS011;1008;47.404;8.502;2022-08-25T11:33:54;5.03;;;4.57;;
2009;SDS011;1008;47.404;8.502;2022-08-25T11:36:26;4.07;;;3.63;;
2009;SDS011;1008;47.404;8.502;2022-08-25T11:39:03;4.13;;;3.73;;
2009;SDS011;1008;47.404;8.502;2022-08-25T11:41:43;4.00;;;3.63;;
2009;SDS011;1008;47.404;8.502;2022-08-25T11:47:31;4.00;;;3.60;;
2009;SDS011;1008;47.404;8.502;2022-08-25T11:50:06;4.47;;;4.07;;
2009;SDS011;1008;47.404;8.502;2022-08-25T11:52:41;4.90;;;3.87;;
2009;SDS011;1008;47.404;8.502;2022-08-25T11:55:13;3.63;;;3.33;;
2009;SDS011;1008;47.404;8.502;2022-08-25T11:57:43;4.47;;;3.83;;
2009;SDS011;1008;47.404;8.502;2022-08-25T12:00:11;4.50;;;3.73;;
2009;SDS011;1008;47.404;8.502;2022-08-25T12:02:41;5.90;;;4.23;;
2009;SDS011;1008;47.404;8.502;2022-08-25T12:05:11;4.10;;;3.70;;
2009;SDS011;1008;47.404;8.502;2022-08-25T12:14:34;4.70;;;4.20;;
2009;SDS011;1008;47.404;8.502;2022-08-25T12:17:15;4.33;;;3.90;;
2009;SDS011;1008;47.404;8.502;2022-08-25T12:19:49;7.00;;;4.33;;
2009;SDS011;1008;47.404;8.502;2022-08-25T12:25:07;3.70;;;3.20;;
2009;SDS011;1008;47.404;8.502;2022-08-25T12:27:44;7.90;;;4.47;;
2009;SDS011;1008;47.404;8.502;2022-08-25T12:30:18;4.10;;;3.50;;
2009;SDS011;1008;47.404;8.502;2022-08-25T12:32:53;4.07;;;3.33;;
2009;SDS011;1008;47.404;8.502;2022-08-25T12:35:29;4.23;;;3.70;;
2009;SDS011;1008;47.404;8.502;2022-08-25T12:37:58;3.90;;;3.33;;
2009;SDS011;1008;47.404;8.502;2022-08-25T12:40:31;3.90;;;3.47;;
2009;SDS011;1008;47.404;8.502;2022-08-25T12:43:05;5.90;;;4.00;;
2009;SDS011;1008;47.404;8.502;2022-08-25T12:45:35;3.70;;;3.40;;
2009;SDS011;1008;47.404;8.502;2022-08-25T12:51:05;5.20;;;3.97;;
2009;SDS011;1008;47.404;8.502;2022-08-25T12:53:36;7.73;;;4.57;;
2009;SDS011;1008;47.404;8.502;2022-08-25T12:56:07;4.63;;;4.13;;
2009;SDS011;1008;47.404;8.502;2022-08-25T12:58:46;7.10;;;4.27;;
2009;SDS011;1008;47.404;8.502;2022-08-25T13:01:17;4.50;;;4.00;;
2009;SDS011;1008;47.404;8.502;2022-08-25T13:04:08;5.30;;;4.60;;
2009;SDS011;1008;47.404;8.502;2022-08-25T13:06:53;4.47;;;3.97;;
2009;SDS011;1008;47.404;8.502;2022-08-25T13:12:30;3.77;;;3.47;;
2009;SDS011;1008;47.404;8.502;2022-08-25T13:15:03;5.13;;;4.10;;
2009;SDS011;1008;47.404;8.502;2022-08-25T13:17:31;4.40;;;4.00;;
2009;SDS011;1008;47.404;8.502;2022-08-25T13:20:12;5.97;;;4.30;;
2009;SDS011;1008;47.404;8.502;2022-08-25T13:22:42;3.83;;;3.53;;
2009;SDS011;1008;47.404;8.502;2022-08-25T13:25:16;4.97;;;4.47;;
2009;SDS011;1008;47.404;8.502;2022-08-25T13:27:50;5.17;;;3.97;;
2009;SDS011;1008;47.404;8.502;2022-08-25T13:30:24;4.50;;;4.10;;
2009;SDS011;1008;47.404;8.502;2022-08-25T13:32:53;4.23;;;3.83;;
2009;SDS011;1008;47.404;8.502;2022-08-25T13:35:22;4.17;;;3.77;;
2009;SDS011;1008;47.404;8.502;2022-08-25T13:37:50;5.30;;;4.10;;
2009;SDS011;1008;47.404;8.502;2022-08-25T13:40:22;4.53;;;4.13;;
2009;SDS011;1008;47.404;8.502;2022-08-25T13:42:52;5.10;;;4.03;;
2009;SDS011;1008;47.404;8.502;2022-08-25T13:45:25;4.20;;;3.80;;
2009;SDS011;1008;47.404;8.502;2022-08-25T13:47:54;4.57;;;3.80;;
2009;SDS011;1008;47.404;8.502;2022-08-25T13:50:29;3.90;;;3.50;;
2009;SDS011;1008;47.404;8.502;2022-08-25T13:52:59;3.70;;;3.40;;
2009;SDS011;1008;47.404;8.502;2022-08-25T13:55:33;3.90;;;3.50;;
2009;SDS011;1008;47.404;8.502;2022-08-25T13:58:04;4.63;;;3.97;;
2009;SDS011;1008;47.404;8.502;2022-08-25T14:00:37;6.30;;;3.60;;
2009;SDS011;1008;47.404;8.502;2022-08-25T14:03:26;3.70;;;3.27;;
2009;SDS011;1008;47.404;8.502;2022-08-25T14:06:03;3.40;;;3.10;;
2009;SDS011;1008;47.404;8.502;2022-08-25T14:08:33;4.00;;;3.60;;
2009;SDS011;1008;47.404;8.502;2022-08-25T14:11:04;3.97;;;3.57;;
2009;SDS011;1008;47.404;8.502;2022-08-25T14:13:35;4.53;;;3.80;;
2009;SDS011;1008;47.404;8.502;2022-08-25T14:16:05;4.10;;;3.40;;
2009;SDS011;1008;47.404;8.502;2022-08-25T14:18:34;4.27;;;3.27;;
2009;SDS011;1008;47.404;8.502;2022-08-25T14:21:02;3.80;;;3.30;;
2009;SDS011;1008;47.404;8.502;2022-08-25T14:23:35;3.80;;;3.50;;
2009;SDS011;1008;47.404;8.502;2022-08-25T14:26:03;3.60;;;3.30;;
2009;SDS011;1008;47.404;8.502;2022-08-25T14:28:30;4.00;;;3.60;;
2009;SDS011;1008;47.404;8.502;2022-08-25T14:31:00;6.70;;;3.50;;
2009;SDS011;1008;47.404;8.502;2022-08-25T14:33:31;6.93;;;3.67;;
2009;SDS011;1008;47.404;8.502;2022-08-25T14:36:00;5.03;;;3.83;;
2009;SDS011;1008;47.404;8.502;2022-08-25T14:38:29;4.40;;;4.00;;
2009;SDS011;1008;47.404;8.502;2022-08-25T14:40:56;4.77;;;3.77;;
2009;SDS011;1008;47.404;8.502;2022-08-25T14:43:23;4.10;;;3.70;;
2009;SDS011;1008;47.404;8.502;2022-08-25T14:45:49;4.13;;;3.73;;
2009;SDS011;1008;47.404;8.502;2022-08-25T14:48:19;3.70;;;3.40;;
2009;SDS011;1008;47.404;8.502;2022-08-25T14:50:50;5.53;;;4.13;;
2009;SDS011;1008;47.404;8.502;2022-08-25T14:53:18;3.63;;;3.17;;
2009;SDS011;1008;47.404;8.502;2022-08-25T14:55:44;7.17;;;4.07;;
2009;SDS011;1008;47.404;8.502;2022-08-25T14:58:11;4.57;;;4.13;;
2009;SDS011;1008;47.404;8.502;2022-08-25T15:00:39;4.80;;;3.90;;
2009;SDS011;1008;47.404;8.502;2022-08-25T15:03:09;4.10;;;3.70;;
2009;SDS011;1008;47.404;8.502;2022-08-25T15:05:39;4.23;;;3.70;;
2009;SDS011;1008;47.404;8.502;2022-08-25T15:08:08;4.13;;;3.60;;
2009;SDS011;1008;47.404;8.502;2022-08-25T15:10:52;4.57;;;3.67;;
2009;SDS011;1008;47.404;8.502;2022-08-25T15:13:19;4.83;;;3.47;;
2009;SDS011;1008;47.404;8.502;2022-08-25T15:15:46;4.13;;;3.73;;
2009;SDS011;1008;47.404;8.502;2022-08-25T15:18:13;3.50;;;3.20;;
2009;SDS011;1008;47.404;8.502;2022-08-25T15:20:43;4.23;;;3.70;;
2009;SDS011;1008;47.404;8.502;2022-08-25T15:23:10;3.87;;;3.47;;
2009;SDS011;1008;47.404;8.502;2022-08-25T15:25:36;4.00;;;3.60;;
2009;SDS011;1008;47.404;8.502;2022-08-25T15:28:10;4.47;;;4.00;;
2009;SDS011;1008;47.404;8.502;2022-08-25T15:30:37;4.47;;;3.73;;
2009;SDS011;1008;47.404;8.502;2022-08-25T15:33:04;4.27;;;3.80;;
2009;SDS011;1008;47.404;8.502;2022-08-25T15:35:31;4.20;;;3.57;;
2009;SDS011;1008;47.404;8.502;2022-08-25T15:38:00;9.60;;;3.10;;
2009;SDS011;1008;47.404;8.502;2022-08-25T15:40:27;4.40;;;3.77;;
2009;SDS011;1008;47.404;8.502;2022-08-25T15:42:54;3.90;;;3.50;;
2009;SDS011;1008;47.404;8.502;2022-08-25T15:45:21;4.03;;;3.60;;
2009;SDS011;1008;47.404;8.502;2022-08-25T15:47:48;3.83;;;3.43;;
2009;SDS011;1008;47.404;8.502;2022-08-25T15:50:16;3.97;;;3.57;;
2009;SDS011;1008;47.404;8.502;2022-08-25T15:52:46;3.70;;;3.40;;
2009;SDS011;1008;47.404;8.502;2022-08-25T15:55:15;3.93;;;3.53;;
2009;SDS011;1008;47.404;8.502;2022-08-25T15:57:42;4.43;;;3.93;;